EPLB

Lublin Airport

Lublin, Poland
METAR EPLB 092200Z 23012KT 9999 -SHRA FEW006 SCT017CB BKN025 04/04 Q0997
Observed Flight Rules
Dec-9 @ 22:00 UTC (30 minutes ago) Marginal Visual Flight Rules
Wind Visibility Clouds Conditions
230° at 12 knots 10,000+ meters
  • Few at 600' AGL
  • Scattered at 1,700' AGL
  • Broken at 2,500' AGL
  • Light Rain
Temperatures Readings
Current 4°C / 39°F
Dewpoint 4°C / 39°F
Humidity 100%
Altimeter 29.44" Hg
Pressure 997 hPa
Elevation 206
METAR EPLB 092200Z 23012KT 9999 -SHRA FEW006 SCT017CB BKN025 04/04 Q0997
Observed Flight Rules
Dec-9 @ 22:00 UTC
(30 minutes ago)
MVFR
Wind Visibility
230° at 12 knots 10,000+ meters
Clouds
  • Few at 600' AGL
  • Scattered at 1,700' AGL
  • Broken at 2,500' AGL
Conditions
  • Light Rain
Temperature Dewpoint
4°C / 39°F 4°C / 39°F
Humidity Altimeter Pressure
100% 29.44" Hg 997 hPa